Time;durP1;ratioP1;P1;durP2;ratioP2;P2;SDS_P1;SDS_P2;PMS_P1;PMS_P2;Temp;Humidity;BMP_temperature;BMP_pressure;BME280_temperature;BME280_humidity;BME280_pressure;Samples;Min_cycle;Max_cycle;Signal;HPM_P1;HPM_P2
2021/07/05 00:00:35;;;;;;;3.10;2.30;;;16.70;99.90;;;;;;5095740;28;20233;-79
2021/07/05 00:03:03;;;;;;;5.17;2.30;;;16.50;99.90;;;;;;5095459;28;20297;-79
2021/07/05 00:05:30;;;;;;;3.23;2.43;;;16.60;99.90;;;;;;5095577;28;20191;-79
2021/07/05 00:07:58;;;;;;;7.53;2.30;;;16.70;99.90;;;;;;5095282;28;20623;-79
2021/07/05 00:10:27;;;;;;;5.53;2.40;;;16.70;99.90;;;;;;5095955;28;20293;-79
2021/07/05 00:12:55;;;;;;;6.10;2.73;;;16.70;99.90;;;;;;5095775;28;20199;-79
2021/07/05 00:15:25;;;;;;;6.13;2.13;;;16.60;99.90;;;;;;5095790;28;20206;-82
2021/07/05 00:17:54;;;;;;;4.17;2.27;;;16.60;99.90;;;;;;5095052;28;20296;-80
2021/07/05 00:20:22;;;;;;;5.10;2.47;;;16.50;99.90;;;;;;5095480;28;20202;-79
2021/07/05 00:22:50;;;;;;;4.13;2.23;;;16.40;99.90;;;;;;5095560;28;20207;-79
2021/07/05 00:25:18;;;;;;;6.37;2.50;;;16.40;99.90;;;;;;5094868;28;20201;-79
2021/07/05 00:27:45;;;;;;;4.70;2.07;;;16.40;99.90;;;;;;5094542;28;20721;-79
2021/07/05 00:30:15;;;;;;;7.87;2.27;;;16.40;99.90;;;;;;5094910;28;20734;-79
2021/07/05 00:32:42;;;;;;;3.67;2.37;;;16.40;99.90;;;;;;5095159;28;20734;-79
2021/07/05 00:35:11;;;;;;;10.13;2.70;;;16.40;99.90;;;;;;5094799;28;20248;-80
2021/07/05 00:59:59;;;;;;;3.73;2.50;;;16.10;99.90;;;;;;5113877;28;20744;-79
2021/07/05 01:02:27;;;;;;;4.40;2.23;;;16.10;99.90;;;;;;5115509;28;20226;-79
2021/07/05 01:04:55;;;;;;;5.17;2.37;;;16.10;99.90;;;;;;5115290;28;20240;-82
2021/07/05 01:07:23;;;;;;;4.90;2.50;;;16.10;99.90;;;;;;5114675;28;20667;-80
2021/07/05 01:09:50;;;;;;;5.53;2.60;;;16.20;99.90;;;;;;5133250;27;20629;-79
2021/07/05 01:12:17;;;;;;;6.03;3.20;;;16.20;99.90;;;;;;5131509;27;20266;-81
2021/07/05 01:14:45;;;;;;;10.30;2.63;;;16.20;99.90;;;;;;5115181;28;20284;-79
2021/07/05 01:17:14;;;;;;;9.53;2.33;;;16.20;99.90;;;;;;5115113;28;20624;-79
2021/07/05 01:19:44;;;;;;;5.40;2.53;;;16.10;99.90;;;;;;5114980;28;20195;-79
2021/07/05 01:22:12;;;;;;;11.07;2.70;;;16.10;99.90;;;;;;5114611;28;20198;-81
2021/07/05 01:24:40;;;;;;;3.93;2.27;;;16.10;99.90;;;;;;5120958;27;20226;-80
2021/07/05 01:27:12;;;;;;;4.70;2.40;;;16.00;99.90;;;;;;5135374;27;20198;-80
2021/07/05 01:29:39;;;;;;;7.73;2.57;;;15.90;99.90;;;;;;5135852;27;20543;-80
2021/07/05 01:32:08;;;;;;;5.53;2.53;;;15.90;99.90;;;;;;5135257;27;20228;-79
2021/07/05 01:34:35;;;;;;;5.07;2.60;;;15.90;99.90;;;;;;5135280;27;20285;-82
2021/07/05 01:37:04;;;;;;;10.60;3.20;;;15.90;99.90;;;;;;5134996;27;20296;-78
2021/07/05 01:39:32;;;;;;;8.63;2.97;;;15.80;99.90;;;;;;5134517;27;20281;-81
2021/07/05 01:41:59;;;;;;;8.40;2.80;;;15.80;99.90;;;;;;5134877;27;20193;-82
2021/07/05 01:44:26;;;;;;;4.87;2.77;;;15.80;99.90;;;;;;5134814;27;20242;-79
2021/07/05 01:46:53;;;;;;;8.30;2.70;;;15.60;99.90;;;;;;5134740;27;20276;-79
2021/07/05 01:49:20;;;;;;;5.80;2.53;;;15.60;99.90;;;;;;5134503;27;20280;-79
2021/07/05 01:51:47;;;;;;;8.53;2.93;;;15.60;99.90;;;;;;5134408;27;20225;-79
2021/07/05 01:54:15;;;;;;;10.03;2.77;;;15.60;99.90;;;;;;5134227;27;20225;-80
2021/07/05 01:56:44;;;;;;;6.57;2.73;;;15.60;99.90;;;;;;5134322;27;20276;-78
2021/07/05 01:59:11;;;;;;;9.97;3.10;;;15.60;99.90;;;;;;5134239;27;20260;-79
2021/07/05 02:01:39;;;;;;;7.37;3.30;;;15.60;99.90;;;;;;5124509;27;20205;-79
2021/07/05 02:04:06;;;;;;;9.37;3.27;;;15.60;99.90;;;;;;5113605;28;20194;-81
2021/07/05 02:06:34;;;;;;;15.13;3.63;;;15.50;99.90;;;;;;5113909;28;20388;-80
2021/07/05 02:09:01;;;;;;;7.13;3.27;;;15.50;99.90;;;;;;5113720;28;20332;-79
2021/07/05 02:11:28;;;;;;;9.03;3.53;;;15.40;99.90;;;;;;5113636;28;20454;-78
2021/07/05 02:13:56;;;;;;;9.13;3.20;;;15.40;99.90;;;;;;5113560;28;20205;-80
2021/07/05 02:16:23;;;;;;;11.17;3.80;;;15.40;99.90;;;;;;5112735;28;20206;-79
2021/07/05 02:18:50;;;;;;;10.63;3.60;;;15.40;99.90;;;;;;5113328;28;20313;-82
2021/07/05 02:21:17;;;;;;;7.90;3.73;;;15.40;99.90;;;;;;5113250;28;20200;-79
2021/07/05 02:23:44;;;;;;;8.63;3.73;;;15.40;99.90;;;;;;5113527;28;20289;-79
2021/07/05 02:26:11;;;;;;;11.10;4.10;;;15.40;99.90;;;;;;5113196;28;20738;-82
2021/07/05 02:28:39;;;;;;;9.40;3.60;;;15.40;99.90;;;;;;5113453;28;20285;-79
2021/07/05 02:31:08;;;;;;;10.23;3.90;;;15.30;99.90;;;;;;5113133;28;20289;-79
2021/07/05 02:33:35;;;;;;;9.70;3.83;;;15.40;99.90;;;;;;5113631;28;20191;-81
2021/07/05 02:36:04;;;;;;;8.60;3.77;;;15.30;99.90;;;;;;5113099;28;20208;-79
2021/07/05 02:38:34;;;;;;;15.73;4.10;;;15.30;99.90;;;;;;5113261;28;20249;-79
2021/07/05 02:41:01;;;;;;;8.83;4.20;;;15.30;99.90;;;;;;5113213;28;20247;-82
2021/07/05 02:43:28;;;;;;;12.07;3.53;;;15.30;99.90;;;;;;5113263;28;20277;-82
2021/07/05 02:45:57;;;;;;;12.47;3.77;;;15.40;99.90;;;;;;5112959;28;20240;-79
2021/07/05 02:48:27;;;;;;;13.87;4.13;;;15.40;99.90;;;;;;5112891;28;20207;-79
2021/07/05 02:50:56;;;;;;;9.93;4.30;;;15.40;99.90;;;;;;5113273;28;20222;-79
2021/07/05 02:53:23;;;;;;;15.87;4.73;;;15.30;99.90;;;;;;5113055;28;20671;-80
2021/07/05 02:55:50;;;;;;;10.53;3.80;;;15.30;99.90;;;;;;5113251;28;20190;-80
2021/07/05 02:58:18;;;;;;;12.83;4.13;;;15.30;99.90;;;;;;5113514;28;20332;-79
2021/07/05 03:00:48;;;;;;;11.93;3.67;;;15.40;99.90;;;;;;5117957;28;20198;-79
2021/07/05 03:03:16;;;;;;;19.47;4.13;;;15.40;99.90;;;;;;5134486;27;20237;-79
2021/07/05 03:05:44;;;;;;;12.73;3.97;;;15.30;99.90;;;;;;5134032;27;20189;-80
2021/07/05 03:08:11;;;;;;;14.80;3.47;;;15.30;99.90;;;;;;5133797;28;20217;-79
2021/07/05 03:10:39;;;;;;;12.43;3.77;;;15.40;99.90;;;;;;5133822;28;20240;-82
2021/07/05 03:13:07;;;;;;;16.10;4.20;;;15.50;99.90;;;;;;5134045;28;20229;-79
2021/07/05 03:15:35;;;;;;;9.60;3.80;;;15.40;99.90;;;;;;5133926;27;20209;-79
2021/07/05 03:18:02;;;;;;;6.50;3.13;;;15.40;99.90;;;;;;5133921;27;20773;-82
2021/07/05 03:20:32;;;;;;;10.63;3.57;;;15.30;99.90;;;;;;5133929;28;20193;-81
2021/07/05 03:23:02;;;;;;;6.60;3.17;;;15.40;99.90;;;;;;5133923;28;20236;-81
2021/07/05 03:25:31;;;;;;;9.77;3.50;;;15.40;99.90;;;;;;5133646;28;20244;-79
2021/07/05 03:27:59;;;;;;;6.63;3.80;;;15.50;99.90;;;;;;5134868;27;20662;-81
2021/07/05 03:30:29;;;;;;;9.57;4.20;;;15.50;99.90;;;;;;5137352;27;20672;-80
2021/07/05 03:32:56;;;;;;;13.67;3.33;;;15.60;99.90;;;;;;5137848;27;20197;-79
2021/07/05 03:35:25;;;;;;;8.63;3.40;;;15.50;99.90;;;;;;5137488;27;20280;-79
2021/07/05 03:37:53;;;;;;;10.43;3.97;;;15.60;99.90;;;;;;5137345;27;20248;-79
2021/07/05 03:40:24;;;;;;;12.60;3.50;;;15.60;99.90;;;;;;5137667;27;20284;-80
2021/07/05 03:42:52;;;;;;;7.97;3.63;;;15.50;99.90;;;;;;5136818;27;20536;-80
2021/07/05 03:45:22;;;;;;;15.50;3.30;;;15.50;99.90;;;;;;5137238;27;20225;-79
2021/07/05 03:47:49;;;;;;;12.43;3.83;;;15.50;99.90;;;;;;5137367;27;20204;-80
2021/07/05 03:50:17;;;;;;;8.60;3.50;;;15.50;99.90;;;;;;5136319;27;20229;-79
2021/07/05 03:52:44;;;;;;;10.77;3.53;;;15.50;99.90;;;;;;5127952;27;20225;-79
2021/07/05 03:55:14;;;;;;;8.00;3.37;;;15.60;99.90;;;;;;5116366;28;20229;-80
2021/07/05 03:57:42;;;;;;;11.20;3.80;;;15.60;99.90;;;;;;5116425;28;20197;-79
2021/07/05 04:00:13;;;;;;;13.73;3.53;;;15.60;99.90;;;;;;5115977;28;20257;-82
2021/07/05 04:02:40;;;;;;;9.67;4.00;;;15.70;99.90;;;;;;5116409;28;20239;-79
2021/07/05 04:05:08;;;;;;;12.33;3.70;;;15.60;99.90;;;;;;5117119;28;20281;-79
2021/07/05 04:07:36;;;;;;;9.80;3.93;;;15.60;99.90;;;;;;5116807;28;20290;-80
2021/07/05 04:10:04;;;;;;;9.37;3.90;;;15.60;99.90;;;;;;5116625;28;20202;-82
2021/07/05 04:12:33;;;;;;;12.53;3.77;;;15.50;99.90;;;;;;5116362;28;20201;-80
2021/07/05 04:15:02;;;;;;;14.50;3.87;;;15.60;99.90;;;;;;5116592;28;20195;-80
2021/07/05 04:17:29;;;;;;;7.30;3.73;;;15.60;99.90;;;;;;5116636;28;20209;-82
2021/07/05 04:19:56;;;;;;;14.10;4.00;;;15.70;99.90;;;;;;5116333;28;20217;-80
2021/07/05 04:22:23;;;;;;;10.37;3.77;;;15.80;99.90;;;;;;5116542;28;20233;-81
2021/07/05 04:24:50;;;;;;;10.17;3.70;;;15.80;99.90;;;;;;5116560;28;20218;-79
2021/07/05 04:27:17;;;;;;;9.43;4.10;;;15.90;99.90;;;;;;5118215;28;20247;-79
2021/07/05 04:29:45;;;;;;;15.30;4.37;;;15.90;99.90;;;;;;5119872;28;20229;-79
2021/07/05 04:32:13;;;;;;;11.47;3.70;;;15.90;99.90;;;;;;5119366;28;20232;-81
2021/07/05 04:34:40;;;;;;;10.30;3.93;;;15.90;99.90;;;;;;5119117;28;20198;-79
2021/07/05 04:37:07;;;;;;;8.13;3.90;;;15.90;99.90;;;;;;5116136;28;20290;-81
2021/07/05 04:39:34;;;;;;;14.50;4.07;;;15.90;99.90;;;;;;5114668;28;20695;-79
2021/07/05 04:42:02;;;;;;;13.03;5.13;;;15.90;99.90;;;;;;5115651;28;20186;-80
2021/07/05 04:44:29;;;;;;;9.87;4.13;;;16.00;99.90;;;;;;5115200;28;20273;-79
2021/07/05 04:46:56;;;;;;;10.20;3.97;;;16.00;99.90;;;;;;5114842;28;20225;-80
2021/07/05 04:49:27;;;;;;;13.30;4.67;;;16.00;99.90;;;;;;5115124;28;20607;-79
2021/07/05 04:51:54;;;;;;;8.83;4.03;;;16.00;99.90;;;;;;5114872;28;20222;-79
2021/07/05 04:54:21;;;;;;;9.17;4.43;;;16.00;99.90;;;;;;5114991;28;20223;-79
2021/07/05 04:56:48;;;;;;;10.83;4.60;;;16.00;99.90;;;;;;5113924;28;20752;-81
2021/07/05 04:59:15;;;;;;;7.93;4.60;;;16.10;99.90;;;;;;5114129;28;20225;-79
2021/07/05 05:01:45;;;;;;;15.17;4.87;;;16.10;99.90;;;;;;5122844;27;20193;-79
2021/07/05 05:04:12;;;;;;;10.07;4.77;;;16.00;99.90;;;;;;5114555;28;20233;-79
2021/07/05 05:06:41;;;;;;;12.93;4.40;;;16.00;99.90;;;;;;5114568;28;20190;-79
2021/07/05 05:09:07;;;;;;;13.07;4.73;;;16.00;99.90;;;;;;5114831;28;20221;-81
2021/07/05 05:11:34;;;;;;;10.70;4.10;;;16.10;99.90;;;;;;5111808;28;20241;-79
2021/07/05 05:14:01;;;;;;;15.00;4.67;;;16.10;99.90;;;;;;5114833;28;20281;-80
2021/07/05 05:16:28;;;;;;;12.87;4.47;;;16.20;99.90;;;;;;5111607;28;20202;-80
2021/07/05 05:18:55;;;;;;;15.67;4.70;;;16.20;99.90;;;;;;5113810;28;20233;-81
2021/07/05 05:21:22;;;;;;;13.23;4.50;;;16.30;99.90;;;;;;5113846;28;20639;-79
2021/07/05 05:23:50;;;;;;;14.37;5.67;;;16.30;99.90;;;;;;5114104;28;20281;-79
2021/07/05 05:26:17;;;;;;;11.60;5.23;;;16.30;99.90;;;;;;5114602;28;20233;-80
2021/07/05 05:28:45;;;;;;;9.67;4.87;;;16.40;99.90;;;;;;5114377;28;20225;-82
2021/07/05 05:31:12;;;;;;;13.53;5.20;;;16.50;99.90;;;;;;5114104;28;20198;-79
2021/07/05 05:33:39;;;;;;;15.37;5.10;;;16.60;99.90;;;;;;5114177;28;20241;-80
2021/07/05 05:36:06;;;;;;;9.10;4.90;;;16.70;99.90;;;;;;5114374;28;20217;-82
2021/07/05 05:38:33;;;;;;;10.40;5.00;;;16.80;99.90;;;;;;5114336;28;20202;-79
2021/07/05 05:41:01;;;;;;;13.57;4.77;;;16.90;99.90;;;;;;5114666;28;20186;-79
2021/07/05 05:43:28;;;;;;;11.53;4.57;;;16.90;99.90;;;;;;5114601;28;20282;-79
2021/07/05 05:46:00;;;;;;;11.57;4.43;;;17.00;99.90;;;;;;5114182;28;20205;-80
2021/07/05 05:48:27;;;;;;;11.60;4.50;;;17.00;99.90;;;;;;5114507;28;20561;-78
2021/07/05 05:50:54;;;;;;;10.60;4.33;;;16.90;99.90;;;;;;5113763;28;20194;-80
2021/07/05 05:53:21;;;;;;;12.03;4.50;;;17.00;99.90;;;;;;5114045;28;20234;-81
2021/07/05 05:55:48;;;;;;;10.63;4.77;;;17.00;99.90;;;;;;5114033;28;20737;-80
2021/07/05 05:58:17;;;;;;;16.30;4.93;;;17.10;99.90;;;;;;5113673;28;20197;-79
2021/07/05 06:00:45;;;;;;;9.03;4.37;;;17.10;99.90;;;;;;5116155;27;20679;-79
2021/07/05 06:03:12;;;;;;;9.63;4.67;;;17.10;99.90;;;;;;5135060;27;20638;-79
2021/07/05 06:05:39;;;;;;;14.87;4.10;;;17.10;99.90;;;;;;5134475;27;20266;-81
2021/07/05 06:08:06;;;;;;;13.67;4.37;;;17.00;99.90;;;;;;5134774;27;20221;-79
2021/07/05 06:10:34;;;;;;;10.90;4.30;;;17.00;99.90;;;;;;5134818;27;20235;-79
2021/07/05 06:13:01;;;;;;;9.37;3.93;;;17.10;99.90;;;;;;5134224;27;20280;-80
2021/07/05 06:15:29;;;;;;;9.33;3.93;;;17.00;99.90;;;;;;5134434;27;20194;-79
2021/07/05 06:17:59;;;;;;;11.17;4.27;;;16.90;99.90;;;;;;5134593;27;20212;-79
2021/07/05 06:20:25;;;;;;;10.03;4.30;;;16.80;99.90;;;;;;5134454;27;20305;-79
2021/07/05 06:22:54;;;;;;;13.17;4.30;;;16.90;99.90;;;;;;5134490;27;20562;-79
2021/07/05 06:25:21;;;;;;;9.20;3.77;;;16.90;99.90;;;;;;5134041;27;20197;-79
2021/07/05 06:27:49;;;;;;;10.23;4.07;;;17.00;99.90;;;;;;5134272;27;20250;-79
2021/07/05 06:30:17;;;;;;;13.70;4.10;;;17.00;99.90;;;;;;5134453;27;20242;-81
2021/07/05 06:32:45;;;;;;;11.17;4.73;;;17.00;99.90;;;;;;5124315;27;20221;-79
2021/07/05 06:35:13;;;;;;;16.67;4.17;;;17.00;99.90;;;;;;5115226;27;20253;-79
2021/07/05 06:37:41;;;;;;;7.57;3.80;;;17.10;99.90;;;;;;5134139;27;20194;-80
2021/07/05 06:40:09;;;;;;;7.27;3.47;;;17.10;99.90;;;;;;5129491;27;20217;-79
2021/07/05 06:42:37;;;;;;;9.03;3.13;;;17.00;99.90;;;;;;5134296;27;20281;-79
2021/07/05 06:45:04;;;;;;;10.57;3.00;;;17.00;99.90;;;;;;5134336;27;20235;-80
2021/07/05 06:47:31;;;;;;;7.73;2.73;;;16.90;99.90;;;;;;5134148;27;20361;-78
2021/07/05 06:49:59;;;;;;;7.13;2.57;;;16.90;99.90;;;;;;5134480;27;20212;-81
2021/07/05 06:52:28;;;;;;;9.60;3.00;;;16.90;99.90;;;;;;5123526;27;20698;-79
2021/07/05 06:54:54;;;;;;;6.60;2.87;;;17.00;99.90;;;;;;5131326;27;20197;-78
2021/07/05 06:57:30;;;;;;;11.03;2.67;;;17.10;99.90;;;;;;5134045;27;20284;-78
2021/07/05 06:59:58;;;;;;;7.97;2.80;;;17.20;99.90;;;;;;5134032;28;20224;-79
2021/07/05 07:02:26;;;;;;;8.80;3.50;;;17.20;99.90;;;;;;5118804;28;20218;-80
2021/07/05 07:04:53;;;;;;;10.83;3.27;;;17.30;99.90;;;;;;5113449;28;20198;-80
2021/07/05 07:07:22;;;;;;;8.87;2.50;;;17.30;99.90;;;;;;5113315;28;20289;-79
2021/07/05 07:09:49;;;;;;;7.30;2.70;;;17.40;99.90;;;;;;5113042;28;20194;-78
2021/07/05 07:12:16;;;;;;;6.60;2.60;;;17.40;99.90;;;;;;5114466;27;20194;-81
2021/07/05 07:14:43;;;;;;;11.20;3.17;;;17.40;99.90;;;;;;5118935;28;20566;-78
2021/07/05 07:17:16;;;;;;;8.07;2.80;;;17.50;99.90;;;;;;5113176;28;20281;-79
2021/07/05 07:19:43;;;;;;;10.17;2.73;;;17.50;99.90;;;;;;5111119;28;20217;-80
2021/07/05 07:22:10;;;;;;;6.23;2.60;;;17.40;99.90;;;;;;5113313;28;20285;-79
2021/07/05 07:24:38;;;;;;;5.47;2.60;;;17.20;99.90;;;;;;5113048;28;20194;-80
2021/07/05 07:27:05;;;;;;;4.27;2.83;;;17.10;99.90;;;;;;5113556;28;20240;-80
2021/07/05 07:29:33;;;;;;;3.93;2.80;;;17.10;99.90;;;;;;5113440;28;20206;-79
2021/07/05 07:32:00;;;;;;;5.60;2.70;;;17.20;99.90;;;;;;5113290;28;20252;-80
2021/07/05 07:34:26;;;;;;;4.87;3.00;;;17.20;99.90;;;;;;5113080;28;20285;-79
2021/07/05 07:36:58;;;;;;;3.43;2.87;;;17.20;99.90;;;;;;5112758;28;21060;-81
2021/07/05 07:39:30;;;;;;;11.70;3.57;;;17.20;99.90;;;;;;5111837;28;20751;-79
2021/07/05 07:41:58;;;;;;;6.03;2.83;;;17.30;99.90;;;;;;5112072;28;20224;-79
2021/07/05 07:44:25;;;;;;;4.50;2.83;;;17.40;99.90;;;;;;5112104;28;20282;-79
2021/07/05 07:46:52;;;;;;;8.30;3.17;;;17.40;99.90;;;;;;5112738;28;20289;-79
2021/07/05 07:49:19;;;;;;;8.03;3.00;;;17.50;99.90;;;;;;5112691;28;20273;-79
2021/07/05 07:51:46;;;;;;;8.10;3.17;;;17.60;99.90;;;;;;5112769;28;20198;-79
2021/07/05 07:54:13;;;;;;;5.87;2.90;;;17.80;99.90;;;;;;5109385;28;20210;-79
2021/07/05 07:56:40;;;;;;;6.80;3.40;;;17.80;99.90;;;;;;5110422;28;20731;-81
2021/07/05 07:59:12;;;;;;;10.60;3.20;;;17.70;99.90;;;;;;5111410;28;20210;-80
2021/07/05 08:01:39;;;;;;;6.00;3.23;;;17.60;99.90;;;;;;5112741;28;20199;-78
2021/07/05 08:04:06;;;;;;;7.03;2.63;;;17.50;99.90;;;;;;5115458;28;20268;-80
2021/07/05 08:06:33;;;;;;;4.97;2.50;;;17.20;99.90;;;;;;5118640;28;20280;-78
2021/07/05 08:09:00;;;;;;;8.10;2.83;;;17.20;99.90;;;;;;5111516;28;20671;-78
2021/07/05 08:11:27;;;;;;;9.77;3.60;;;17.20;99.90;;;;;;5123182;28;20254;-78
2021/07/05 08:13:54;;;;;;;9.77;3.30;;;17.20;99.90;;;;;;5123504;28;20282;-77
2021/07/05 08:16:23;;;;;;;7.83;3.47;;;17.10;99.90;;;;;;5117713;27;20616;-78
2021/07/05 08:18:49;;;;;;;5.90;3.30;;;17.20;99.90;;;;;;5117127;27;20208;-80
2021/07/05 08:21:17;;;;;;;13.53;3.50;;;17.10;99.90;;;;;;5119668;27;20407;-79
2021/07/05 08:23:45;;;;;;;7.93;3.43;;;17.10;99.90;;;;;;5112652;28;20195;-79
2021/07/05 08:26:12;;;;;;;8.10;4.27;;;17.10;99.90;;;;;;5106836;28;20627;-80
2021/07/05 08:28:39;;;;;;;7.73;4.60;;;17.10;99.90;;;;;;5114741;28;20707;-81
2021/07/05 08:31:07;;;;;;;11.97;4.30;;;17.10;99.90;;;;;;5115209;27;20220;-80
2021/07/05 08:33:36;;;;;;;8.40;4.43;;;17.00;99.90;;;;;;5116264;28;20198;-81
2021/07/05 08:36:04;;;;;;;7.40;4.20;;;17.10;99.90;;;;;;5126379;27;20228;-78
2021/07/05 08:38:32;;;;;;;10.47;3.80;;;17.40;99.90;;;;;;5136338;27;20197;-79
2021/07/05 08:41:00;;;;;;;10.00;3.90;;;17.70;99.90;;;;;;5119379;27;20222;-78
2021/07/05 08:43:29;;;;;;;7.67;2.80;;;18.50;99.90;;;;;;5114585;28;20280;-79
2021/07/05 08:45:59;;;;;;;6.70;3.07;;;19.40;99.90;;;;;;5113602;28;20247;-79
2021/07/05 08:48:29;;;;;;;9.97;2.77;;;20.40;99.90;;;;;;5110130;27;20293;-78
2021/07/05 08:50:59;;;;;;;8.17;2.83;;;21.10;99.90;;;;;;5109456;28;20289;-79
2021/07/05 08:53:26;;;;;;;7.13;3.00;;;22.00;99.90;;;;;;5108258;28;20293;-80
2021/07/05 08:55:53;;;;;;;5.40;3.07;;;22.20;99.90;;;;;;5114944;28;20198;-79
2021/07/05 08:58:20;;;;;;;7.50;3.40;;;22.10;99.90;;;;;;5115789;27;20190;-79
2021/07/05 09:00:48;;;;;;;10.13;2.95;;;23.20;99.90;;;;;;5115421;28;20313;-80
2021/07/05 09:03:15;;;;;;;6.03;2.25;;;23.70;99.90;;;;;;5115524;27;20241;-79
2021/07/05 09:05:42;;;;;;;4.97;2.35;;;24.10;99.90;;;;;;5115181;28;20202;-80
2021/07/05 09:08:12;;;;;;;4.55;2.17;;;23.90;99.90;;;;;;5114777;28;20280;-79
2021/07/05 09:10:45;;;;;;;8.02;2.67;;;23.50;99.90;;;;;;5114644;28;20534;-78
2021/07/05 09:13:15;;;;;;;6.85;2.45;;;23.60;99.90;;;;;;5114038;28;20231;-80
2021/07/05 09:15:45;;;;;;;7.53;2.58;;;22.90;99.90;;;;;;5114792;27;20281;-79
2021/07/05 09:18:30;;;;;;;4.85;2.28;;;22.90;99.90;;;;;;5117407;27;20194;-81
2021/07/05 09:20:59;;;;;;;4.72;2.35;;;22.90;99.90;;;;;;5114142;28;20275;-78
2021/07/05 09:23:27;;;;;;;7.22;2.92;;;23.20;99.90;;;;;;5117036;27;20247;-81
2021/07/05 09:25:54;;;;;;;4.45;2.40;;;25.00;99.90;;;;;;5119548;27;20229;-82
2021/07/05 09:28:23;;;;;;;4.97;2.38;;;27.50;99.90;;;;;;5113945;28;20202;-80
2021/07/05 09:30:53;;;;;;;7.68;2.50;;;28.50;99.90;;;;;;5106899;27;20701;-81
2021/07/05 09:33:21;;;;;;;3.83;1.95;;;30.10;99.90;;;;;;5113784;27;20194;-81
2021/07/05 09:35:50;;;;;;;4.05;2.20;;;30.70;99.90;;;;;;5112840;28;20555;-78
2021/07/05 09:38:31;;;;;;;4.20;2.05;;;31.50;99.90;;;;;;5113237;27;20234;-80
2021/07/05 09:41:16;;;;;;;4.32;2.10;;;30.10;99.90;;;;;;5114503;27;20218;-81
2021/07/05 09:43:43;;;;;;;4.15;2.22;;;28.60;99.90;;;;;;5113799;28;20633;-77
2021/07/05 09:46:11;;;;;;;3.58;2.30;;;26.70;99.90;;;;;;5113303;27;20628;-79
2021/07/05 09:48:45;;;;;;;8.63;2.22;;;25.70;99.90;;;;;;5112776;27;20196;-78
2021/07/05 09:51:14;;;;;;;5.72;2.53;;;25.50;99.90;;;;;;5110924;28;20210;-81
2021/07/05 09:53:44;;;;;;;6.35;2.58;;;25.30;99.90;;;;;;5122269;27;20189;-82
2021/07/05 09:56:23;;;;;;;4.90;3.03;;;25.00;99.90;;;;;;5113905;28;20194;-77
2021/07/05 09:58:51;;;;;;;3.95;2.35;;;24.60;99.90;;;;;;5119554;27;20570;-78
2021/07/05 10:01:39;;;;;;;3.55;2.03;;;24.50;99.90;;;;;;5114914;27;20229;-78
2021/07/05 10:04:07;;;;;;;5.82;2.40;;;24.40;99.90;;;;;;5112406;27;20277;-79
2021/07/05 10:06:41;;;;;;;4.45;2.38;;;24.40;99.90;;;;;;5114399;28;20229;-78
2021/07/05 10:09:13;;;;;;;6.68;2.33;;;23.90;99.90;;;;;;5113172;28;20215;-81
2021/07/05 10:11:40;;;;;;;4.95;2.05;;;24.10;99.90;;;;;;5113929;28;20730;-78
2021/07/05 10:14:13;;;;;;;4.05;2.00;;;24.70;99.90;;;;;;5117424;27;20596;-78
2021/07/05 10:16:40;;;;;;;4.32;2.08;;;24.90;99.90;;;;;;5113795;27;20265;-78
2021/07/05 10:19:08;;;;;;;2.95;1.77;;;24.90;99.90;;;;;;5112513;28;20285;-78
2021/07/05 10:21:36;;;;;;;5.95;2.20;;;24.70;99.90;;;;;;5111653;27;20213;-79
2021/07/05 10:24:05;;;;;;;3.92;1.95;;;24.20;99.90;;;;;;5113446;27;20233;-81
2021/07/05 10:26:34;;;;;;;3.97;2.17;;;23.60;99.90;;;;;;5112917;28;20540;-78
2021/07/05 10:29:01;;;;;;;5.93;2.30;;;22.80;99.90;;;;;;5111011;28;20225;-79
2021/07/05 10:31:28;;;;;;;7.03;2.25;;;22.60;99.90;;;;;;5113268;27;20586;-78
2021/07/05 10:33:59;;;;;;;6.93;2.35;;;22.30;99.90;;;;;;5111940;28;20190;-80
2021/07/05 10:36:29;;;;;;;5.78;2.25;;;22.20;99.90;;;;;;5113166;28;20285;-78
2021/07/05 10:39:00;;;;;;;7.00;2.75;;;22.30;99.90;;;;;;5112682;27;20599;-78
2021/07/05 10:41:36;;;;;;;7.05;2.28;;;22.80;99.90;;;;;;5119809;27;20219;-78
2021/07/05 10:44:05;;;;;;;5.63;1.95;;;23.50;99.90;;;;;;5134314;27;20267;-79
2021/07/05 10:46:44;;;;;;;6.20;2.22;;;23.90;99.90;;;;;;5119048;27;20202;-79
2021/07/05 10:49:39;;;;;;;4.10;1.92;;;24.80;99.90;;;;;;5113591;28;20212;-81
2021/07/05 10:52:08;;;;;;;5.65;2.50;;;25.80;99.90;;;;;;5110978;28;20194;-80
2021/07/05 10:54:43;;;;;;;6.15;2.33;;;26.40;99.90;;;;;;5113028;28;20600;-79
2021/07/05 10:57:11;;;;;;;6.65;1.90;;;27.10;99.90;;;;;;5122318;27;20198;-79
2021/07/05 10:59:43;;;;;;;6.20;2.00;;;26.60;99.90;;;;;;5112592;28;20217;-79
2021/07/05 11:02:47;;;;;;;4.85;2.25;;;26.20;99.90;;;;;;5111737;28;20597;-78
2021/07/05 11:05:35;;;;;;;6.32;2.25;;;25.80;99.90;;;;;;5111284;28;20220;-77
2021/07/05 11:08:31;;;;;;;5.35;2.20;;;25.10;99.90;;;;;;5121750;28;20278;-78
2021/07/05 11:11:21;;;;;;;9.05;2.30;;;24.80;99.90;;;;;;5113491;28;20204;-78
2021/07/05 11:14:08;;;;;;;5.68;2.15;;;24.60;99.90;;;;;;5110045;28;20285;-77
2021/07/05 11:16:51;;;;;;;7.32;2.08;;;24.30;99.90;;;;;;5103020;28;20231;-80
2021/07/05 11:19:31;;;;;;;7.97;2.55;;;23.80;99.90;;;;;;5111209;28;20650;-79
2021/07/05 11:22:04;;;;;;;5.88;2.25;;;24.00;99.90;;;;;;5109313;28;20297;-80
2021/07/05 11:24:36;;;;;;;5.05;1.70;;;24.30;99.90;;;;;;5112245;28;20286;-78
2021/07/05 11:27:39;;;;;;;4.82;1.85;;;25.00;99.90;;;;;;5113045;28;20241;-79
2021/07/05 11:30:28;;;;;;;4.95;1.70;;;25.00;99.90;;;;;;5112555;28;20346;-79
2021/07/05 11:32:56;;;;;;;4.25;2.25;;;25.00;99.90;;;;;;5111989;28;20179;-79
2021/07/05 11:35:39;;;;;;;5.43;1.85;;;25.20;99.90;;;;;;5111626;28;20289;-79
2021/07/05 11:38:10;;;;;;;7.45;2.03;;;25.20;99.90;;;;;;5111349;28;20685;-79
2021/07/05 11:40:45;;;;;;;5.93;1.50;;;25.70;99.90;;;;;;5112273;28;20242;-79
2021/07/05 11:43:13;;;;;;;2.83;1.65;;;26.00;99.90;;;;;;5112589;28;20218;-78
2021/07/05 11:45:50;;;;;;;4.72;1.98;;;26.20;99.90;;;;;;5111441;28;20202;-79
2021/07/05 11:48:53;;;;;;;4.72;1.90;;;25.80;99.90;;;;;;5112157;28;20724;-79
2021/07/05 11:51:23;;;;;;;5.28;1.70;;;25.60;99.90;;;;;;5115510;28;20568;-83
2021/07/05 11:53:51;;;;;;;4.32;1.55;;;25.60;99.90;;;;;;5116150;28;20194;-78
2021/07/05 11:56:33;;;;;;;4.30;1.58;;;25.80;99.90;;;;;;5115576;27;20731;-80
2021/07/05 11:59:01;;;;;;;4.40;1.60;;;25.90;99.90;;;;;;5115077;28;20210;-79
2021/07/05 12:01:30;;;;;;;2.53;1.45;;;25.80;99.90;;;;;;5115307;28;20241;-79
2021/07/05 12:03:59;;;;;;;2.80;1.60;;;26.10;99.90;;;;;;5115595;27;20197;-79
2021/07/05 12:06:27;;;;;;;5.55;1.63;;;26.10;99.90;;;;;;5115426;28;20398;-79
2021/07/05 12:08:55;;;;;;;3.35;2.00;;;26.00;99.90;;;;;;5115514;28;20766;-78
2021/07/05 12:11:34;;;;;;;2.92;1.60;;;25.80;99.90;;;;;;5117672;27;20225;-78
2021/07/05 12:14:13;;;;;;;3.38;1.70;;;25.50;99.90;;;;;;5115229;27;20244;-81
2021/07/05 12:16:45;;;;;;;3.83;1.60;;;26.30;99.90;;;;;;5115902;28;20283;-79
2021/07/05 12:19:13;;;;;;;2.45;1.40;;;28.00;99.90;;;;;;5117177;27;20182;-79
2021/07/05 12:21:44;;;;;;;2.15;1.60;;;28.40;99.90;;;;;;5111725;27;20214;-78
2021/07/05 12:24:17;;;;;;;4.88;1.27;;;28.20;99.90;;;;;;5115138;28;20186;-78
2021/07/05 12:26:47;;;;;;;4.18;1.50;;;28.20;99.90;;;;;;5114290;27;20205;-79
2021/07/05 12:29:17;;;;;;;2.25;1.38;;;28.50;99.90;;;;;;5110582;27;20281;-79
2021/07/05 12:32:03;;;;;;;4.75;1.40;;;28.50;99.90;;;;;;5103245;27;20297;-80
2021/07/05 12:34:52;;;;;;;2.13;1.38;;;28.30;99.90;;;;;;5114508;28;20225;-80
2021/07/05 12:37:25;;;;;;;3.03;1.20;;;28.00;99.90;;;;;;5114533;28;20407;-79
2021/07/05 12:39:55;;;;;;;1.77;1.17;;;27.80;99.90;;;;;;5116590;27;20218;-80
2021/07/05 12:42:36;;;;;;;2.05;1.30;;;27.30;99.90;;;;;;5113795;27;20221;-81
2021/07/05 12:45:08;;;;;;;3.38;1.23;;;26.60;99.90;;;;;;5109920;27;20570;-80
2021/07/05 12:47:47;;;;;;;4.13;1.50;;;26.40;99.90;;;;;;5114149;27;20285;-80
2021/07/05 12:50:16;;;;;;;5.63;1.70;;;26.20;99.90;;;;;;5113279;28;20202;-78
2021/07/05 12:53:08;;;;;;;4.55;1.80;;;25.30;99.90;;;;;;5113770;28;20230;-78
2021/07/05 12:55:37;;;;;;;5.45;1.80;;;24.70;99.90;;;;;;5114874;27;20202;-79
2021/07/05 12:58:04;;;;;;;6.03;2.20;;;23.60;99.90;;;;;;5114857;28;20237;-81
2021/07/05 13:00:33;;;;;;;3.38;2.15;;;23.00;99.90;;;;;;5111878;27;20620;-80
2021/07/05 13:03:14;;;;;;;4.18;2.47;;;22.70;99.90;;;;;;5111947;28;20244;-79
2021/07/05 13:05:42;;;;;;;3.42;2.10;;;22.60;99.90;;;;;;5111636;28;20231;-80
2021/07/05 13:08:10;;;;;;;2.67;2.10;;;22.50;99.90;;;;;;5112860;27;20210;-77
2021/07/05 13:10:39;;;;;;;3.38;2.30;;;22.60;99.90;;;;;;5112419;28;20660;-79
2021/07/05 13:13:08;;;;;;;5.65;2.47;;;22.60;99.90;;;;;;5112909;28;20206;-80
2021/07/05 13:15:38;;;;;;;5.38;2.33;;;23.00;99.90;;;;;;5113773;28;20198;-79
2021/07/05 13:18:19;;;;;;;3.13;2.05;;;23.70;99.90;;;;;;5113916;28;20233;-78